Terminal Aerodrome Forecast
Issued by NWS

Home | Current Version | Previous Version | Text Only | Print | Product List | Glossary On
Versions: 1 2 3 4 5 6 7 8 9 10 11 12
000
FTUS44 KLUB 111700
TAFCDS
TAF
KCDS 111737Z 1118/1218 18014G18KT P6SM FEW060
     FM120100 18009KT P6SM SKC
     FM121500 20013G18KT P6SM FEW250=

USA.gov is the U.S. government's official web portal to all federal, state and local government web resources and services.